American Beauty — WDB9866 — position and weather

sailwx.info

Track history (hours):
 
Tides and Currents Weather Stations Pressure Air Temp Water Temp Dewpoint Dewpoint Depression Visibility Wind Speed Wind Dir Waves Ship Positions

American Beauty

Owner: American River Transportation Company, St Louis, MO. More information available from US FCC via Universal Licensing System and Coast Guard Vessel Documentation Center.

Last reported at 2017-Sep-27 08:27 UTC. Time now 2017-Nov-18 01:09 UTC.
Position N 38°52' W 090°09'.
Warning: this ship's position is 51 days out of date.

Length 52 m; draft 3.5 m.

Type: Towing. MMSI: 366984180.

Date/timePositionNaut miles runAvg speedWind from/ knotsBaromVisibWave heightAir tempDewpointWater temp
2017-Sep-27 08:27N 38°52' W 090°09'2 4.6
2017-Sep-27 07:59N 38°53' W 090°12'2 3.8
2017-Sep-27 07:28N 38°55' W 090°14'0 0.1
2017-Sep-27 07:00N 38°55' W 090°13'0 0.0
2017-Sep-27 06:31N 38°55' W 090°13'0 0.0
2017-Sep-27 06:01N 38°55' W 090°13'0 0.0
2017-Sep-27 05:31N 38°55' W 090°13'0 0.0
2017-Sep-27 05:00N 38°55' W 090°13'0 0.0
2017-Sep-27 04:31N 38°55' W 090°13'0 0.0
2017-Sep-27 04:01N 38°55' W 090°13'0 0.0
2017-Sep-27 03:30N 38°55' W 090°13'0 0.4
2017-Sep-27 02:57N 38°55' W 090°14'3 5.7
2017-Sep-27 02:31N 38°55' W 090°17'3 5.8
2017-Sep-27 02:01N 38°56' W 090°20'3 6.1
2017-Sep-27 01:31N 38°58' W 090°24'3 5.8
2017-Sep-27 01:01N 38°57' W 090°28'3 5.7
2017-Sep-27 00:31N 38°55' W 090°30'  
2017-Sep-20 09:45N 40°52' W 091°02'1 3.3
2017-Sep-20 09:31N 40°53' W 091°02'0 0.3
2017-Sep-20 09:00N 40°53' W 091°01'0 0.1
2017-Sep-20 08:31N 40°53' W 091°01'0 0.2
2017-Sep-20 08:00N 40°53' W 091°01'1 1.7
2017-Sep-20 07:30N 40°54' W 091°01'2 4.4
2017-Sep-20 07:00N 40°55' W 090°58'2 4.4
2017-Sep-20 06:30N 40°57' W 090°57'2 4.8
2017-Sep-20 06:01N 40°60' W 090°57'3 5.2
2017-Sep-20 05:30N 41°02' W 090°56'3 5.0
2017-Sep-20 05:00N 41°05' W 090°57'3 4.9
2017-Sep-20 04:27N 41°07' W 090°58'4 4.9
2017-Sep-20 03:44N 41°10' W 091°01'16 0.3
2017-Sep-18 05:55N 41°26' W 090°60'17 2.3
2017-Sep-17 22:35N 41°09' W 090°59'1 4.4
2017-Sep-17 22:26N 41°08' W 090°59'2 4.8
2017-Sep-17 21:59N 41°07' W 090°57'2 4.4
2017-Sep-17 21:30N 41°05' W 090°57'2 4.2
2017-Sep-17 21:00N 41°02' W 090°56'1 1.0
2017-Sep-17 20:31N 41°02' W 090°56'2 4.7
2017-Sep-17 20:00N 40°60' W 090°57'2 4.6
2017-Sep-17 19:30N 40°57' W 090°57'2 4.6
2017-Sep-17 19:01N 40°55' W 090°58'2 4.7
2017-Sep-17 18:30N 40°54' W 091°01'1 2.2
2017-Sep-17 18:01N 40°53' W 091°01'0 0.2
2017-Sep-17 17:30N 40°53' W 091°02'0 0.7
2017-Sep-17 17:01N 40°53' W 091°02'2 4.4
2017-Sep-17 16:31N 40°51' W 091°04'1 2.8
2017-Sep-17 16:00N 40°50' W 091°05'0 0.0
2017-Sep-17 15:30N 40°50' W 091°05'0 0.1
2017-Sep-17 15:00N 40°50' W 091°05'0 0.1
2017-Sep-17 14:31N 40°50' W 091°05'0 0.0
2017-Sep-17 14:00N 40°50' W 091°05'1 1.7
2017-Sep-17 13:31N 40°49' W 091°06'3 5.1
2017-Sep-17 13:01N 40°47' W 091°06'4 3.4
2017-Sep-17 11:50N 40°43' W 091°07'  
Track history (hours):
 
Tides and Currents Weather Stations Pressure Air Temp Water Temp Dewpoint Dewpoint Depression Visibility Wind Speed Wind Dir Waves Ship Positions

American Beauty

Owner: American River Transportation Company, St Louis, MO. More information available from US FCC via Universal Licensing System and Coast Guard Vessel Documentation Center.

Last reported at 2017-Sep-27 08:27 UTC. Time now 2017-Nov-18 01:09 UTC.
Position N 38°52' W 090°09'.
Warning: this ship's position is 51 days out of date.

Length 52 m; draft 3.5 m.

Type: Towing. MMSI: 366984180.

Date/timePositionNaut miles runAvg speedWind from/ knotsBaromVisibWave heightAir tempDewpointWater temp
2017-Sep-27 08:27N 38°52' W 090°09'2 4.6
2017-Sep-27 07:59N 38°53' W 090°12'2 3.8
2017-Sep-27 07:28N 38°55' W 090°14'0 0.1
2017-Sep-27 07:00N 38°55' W 090°13'0 0.0
2017-Sep-27 06:31N 38°55' W 090°13'0 0.0
2017-Sep-27 06:01N 38°55' W 090°13'0 0.0
2017-Sep-27 05:31N 38°55' W 090°13'0 0.0
2017-Sep-27 05:00N 38°55' W 090°13'0 0.0
2017-Sep-27 04:31N 38°55' W 090°13'0 0.0
2017-Sep-27 04:01N 38°55' W 090°13'0 0.0
2017-Sep-27 03:30N 38°55' W 090°13'0 0.4
2017-Sep-27 02:57N 38°55' W 090°14'3 5.7
2017-Sep-27 02:31N 38°55' W 090°17'3 5.8
2017-Sep-27 02:01N 38°56' W 090°20'3 6.1
2017-Sep-27 01:31N 38°58' W 090°24'3 5.8
2017-Sep-27 01:01N 38°57' W 090°28'3 5.7
2017-Sep-27 00:31N 38°55' W 090°30'  
2017-Sep-20 09:45N 40°52' W 091°02'1 3.3
2017-Sep-20 09:31N 40°53' W 091°02'0 0.3
2017-Sep-20 09:00N 40°53' W 091°01'0 0.1
2017-Sep-20 08:31N 40°53' W 091°01'0 0.2
2017-Sep-20 08:00N 40°53' W 091°01'1 1.7
2017-Sep-20 07:30N 40°54' W 091°01'2 4.4
2017-Sep-20 07:00N 40°55' W 090°58'2 4.4
2017-Sep-20 06:30N 40°57' W 090°57'2 4.8
2017-Sep-20 06:01N 40°60' W 090°57'3 5.2
2017-Sep-20 05:30N 41°02' W 090°56'3 5.0
2017-Sep-20 05:00N 41°05' W 090°57'3 4.9
2017-Sep-20 04:27N 41°07' W 090°58'4 4.9
2017-Sep-20 03:44N 41°10' W 091°01'16 0.3
2017-Sep-18 05:55N 41°26' W 090°60'17 2.3
2017-Sep-17 22:35N 41°09' W 090°59'1 4.4
2017-Sep-17 22:26N 41°08' W 090°59'2 4.8
2017-Sep-17 21:59N 41°07' W 090°57'2 4.4
2017-Sep-17 21:30N 41°05' W 090°57'2 4.2
2017-Sep-17 21:00N 41°02' W 090°56'1 1.0
2017-Sep-17 20:31N 41°02' W 090°56'2 4.7
2017-Sep-17 20:00N 40°60' W 090°57'2 4.6
2017-Sep-17 19:30N 40°57' W 090°57'2 4.6
2017-Sep-17 19:01N 40°55' W 090°58'2 4.7
2017-Sep-17 18:30N 40°54' W 091°01'1 2.2
2017-Sep-17 18:01N 40°53' W 091°01'0 0.2
2017-Sep-17 17:30N 40°53' W 091°02'0 0.7
2017-Sep-17 17:01N 40°53' W 091°02'2 4.4
2017-Sep-17 16:31N 40°51' W 091°04'1 2.8
2017-Sep-17 16:00N 40°50' W 091°05'0 0.0
2017-Sep-17 15:30N 40°50' W 091°05'0 0.1
2017-Sep-17 15:00N 40°50' W 091°05'0 0.1
2017-Sep-17 14:31N 40°50' W 091°05'0 0.0
2017-Sep-17 14:00N 40°50' W 091°05'1 1.7
2017-Sep-17 13:31N 40°49' W 091°06'3 5.1
2017-Sep-17 13:01N 40°47' W 091°06'4 3.4
2017-Sep-17 11:50N 40°43' W 091°07'  

Dump ship's entire track history